Time;durP1;ratioP1;P1;durP2;ratioP2;P2;SDS_P1;SDS_P2;PMS_P1;PMS_P2;Temp;Humidity;BMP_temperature;BMP_pressure;BME280_temperature;BME280_humidity;BME280_pressure;Samples;Min_cycle;Max_cycle;Signal;HPM_P1;HPM_P2
2023/09/08 00:00:02;;;;;;;8.08;6.85;;;;;;;16.79;73.12;101301.58;1797130;79;27396;-64
2023/09/08 00:02:30;;;;;;;10.10;7.20;;;;;;;16.79;73.25;101296.69;1797282;79;26075;-62
2023/09/08 00:04:56;;;;;;;10.25;7.53;;;;;;;16.75;73.42;101288.34;1797123;79;25389;-64
2023/09/08 00:07:22;;;;;;;8.28;6.83;;;;;;;16.75;73.44;101285.62;1781585;79;26153;-63
2023/09/08 00:09:49;;;;;;;10.15;7.17;;;;;;;16.73;73.38;101287.84;1797149;79;25465;-63
2023/09/08 00:12:15;;;;;;;10.53;6.80;;;;;;;16.71;73.61;101286.59;1797108;79;27469;-64
2023/09/08 00:14:41;;;;;;;9.13;6.05;;;;;;;16.71;73.55;101287.95;1796996;79;25989;-63
2023/09/08 00:17:09;;;;;;;9.53;7.20;;;;;;;16.68;73.60;101283.93;1791862;78;25528;-63
2023/09/08 00:19:35;;;;;;;11.20;6.78;;;;;;;16.67;73.78;101280.98;1771496;80;25699;-63
2023/09/08 00:22:07;;;;;;;12.37;7.22;;;;;;;16.65;73.76;101291.41;1771621;80;25454;-63
2023/09/08 00:24:35;;;;;;;9.95;7.22;;;;;;;16.62;73.81;101281.16;1791439;80;28013;-64
2023/09/08 00:27:01;;;;;;;8.00;6.60;;;;;;;16.61;73.66;101280.91;1791260;80;25591;-63
2023/09/08 00:29:28;;;;;;;9.70;7.20;;;;;;;16.59;73.85;101282.59;1791368;79;25587;-63
2023/09/08 00:31:54;;;;;;;10.32;6.87;;;;;;;16.58;74.23;101279.64;1791324;80;25558;-63
2023/09/08 00:34:20;;;;;;;9.15;7.20;;;;;;;16.56;74.23;101284.60;1791370;79;25562;-63
2023/09/08 00:36:47;;;;;;;11.15;7.05;;;;;;;16.54;74.15;101277.30;1791359;80;27507;-63
2023/09/08 00:39:13;;;;;;;9.68;7.10;;;;;;;16.52;74.12;101278.20;1791267;80;25524;-63
2023/09/08 00:41:39;;;;;;;11.33;7.15;;;;;;;16.50;74.02;101281.83;1791388;79;25567;-63
2023/09/08 00:44:08;;;;;;;7.78;6.80;;;;;;;16.49;74.73;101285.67;1791324;79;26111;-63
2023/09/08 00:46:36;;;;;;;9.85;7.30;;;;;;;16.48;74.44;101284.63;1791666;79;25551;-63
2023/09/08 00:49:06;;;;;;;8.70;6.97;;;;;;;16.48;74.78;101287.36;1791360;79;27556;-63
2023/09/08 00:51:34;;;;;;;;;;;;;;;16.46;74.79;101285.52;1793946;79;25621;-64
2023/09/08 00:54:03;;;;;;;10.60;6.42;;;;;;;16.46;75.20;101289.05;1791513;80;25554;-63
2023/09/08 00:56:30;;;;;;;11.53;6.62;;;;;;;16.44;74.94;101287.21;1791490;80;26079;-63
2023/09/08 00:58:56;;;;;;;8.18;6.50;;;;;;;16.43;75.16;101286.98;1771538;80;25593;-63
2023/09/08 01:01:24;;;;;;;9.10;6.33;;;;;;;16.43;75.10;101291.88;1791305;79;27455;-63
2023/09/08 01:03:50;;;;;;;13.40;6.87;;;;;;;16.44;75.45;101295.40;1791268;80;25590;-63
2023/09/08 01:06:19;;;;;;;8.15;6.92;;;;;;;16.43;75.24;101291.88;1791347;80;25436;-63
2023/09/08 01:08:47;;;;;;;10.15;7.53;;;;;;;16.44;75.61;101289.37;1791332;79;25606;-64
2023/09/08 01:11:14;;;;;;;8.13;7.30;;;;;;;16.42;75.50;101284.80;1791384;79;25464;-64
2023/09/08 01:13:44;;;;;;;11.20;7.35;;;;;;;16.43;75.43;101283.69;1791336;79;27462;-63
2023/09/08 01:16:11;;;;;;;9.10;7.00;;;;;;;16.42;75.39;101282.07;1793278;78;25408;-63
2023/09/08 01:18:39;;;;;;;12.47;7.30;;;;;;;16.43;75.78;101283.69;1797236;79;25457;-64
2023/09/08 01:21:43;;;;;;;8.43;6.58;;;;;;;16.42;75.69;101281.28;1797190;79;25482;-63
2023/09/08 01:24:39;;;;;;;8.13;6.95;;;;;;;16.42;75.90;101287.53;1797401;79;25541;-63
2023/09/08 01:27:09;;;;;;;9.53;6.75;;;;;;;16.43;75.83;101278.80;1797159;79;27550;-62
2023/09/08 01:29:39;;;;;;;9.73;7.50;;;;;;;16.42;75.92;101271.15;1797125;79;25581;-61
2023/09/08 01:32:08;;;;;;;9.58;7.62;;;;;;;16.41;76.12;101269.56;1797250;79;25538;-64
2023/09/08 01:34:36;;;;;;;;;;;;;;;16.40;76.00;101266.58;1800080;79;26093;-63
2023/09/08 01:37:07;;;;;;;10.80;7.12;;;;;;;16.40;76.31;101269.88;1798818;79;25192;-62
2023/09/08 01:39:33;;;;;;;11.65;7.50;;;;;;;16.40;76.14;101276.70;1798850;79;27609;-62
2023/09/08 01:41:59;;;;;;;10.75;7.30;;;;;;;16.38;76.30;101270.20;1797833;79;25549;-61
2023/09/08 01:44:27;;;;;;;10.23;6.92;;;;;;;16.39;76.43;101263.60;1797164;79;25587;-63
2023/09/08 01:46:56;;;;;;;9.60;6.90;;;;;;;16.40;76.26;101261.69;1797167;79;25609;-61
2023/09/08 01:49:25;;;;;;;10.30;6.65;;;;;;;16.39;76.29;101262.23;1797322;79;25684;-62
2023/09/08 01:51:53;;;;;;;10.18;6.62;;;;;;;16.37;76.50;101264.49;1797393;79;27455;-62
2023/09/08 01:54:19;;;;;;;8.23;6.12;;;;;;;16.36;76.48;101262.91;1797082;79;25662;-62
2023/09/08 01:56:46;;;;;;;10.13;6.53;;;;;;;16.36;76.59;101262.91;1797213;79;25548;-62
2023/09/08 01:59:12;;;;;;;14.55;8.43;;;;;;;16.36;76.39;101255.27;1797160;79;25619;-61
2023/09/08 02:01:39;;;;;;;10.00;7.00;;;;;;;16.36;76.54;101247.07;1797228;79;25396;-63
2023/09/08 02:04:06;;;;;;;11.25;7.37;;;;;;;16.36;76.77;101252.53;1797140;79;27584;-63
2023/09/08 02:06:33;;;;;;;10.30;7.15;;;;;;;16.35;76.69;101255.83;1797129;79;25985;-63
2023/09/08 02:08:59;;;;;;;11.20;6.97;;;;;;;16.34;76.88;101256.95;1797176;79;25381;-63
2023/09/08 02:11:25;;;;;;;11.30;9.13;;;;;;;16.32;76.83;101252.95;1797241;79;26087;-63
2023/09/08 02:13:53;;;;;;;13.15;9.88;;;;;;;16.32;77.29;101256.48;1797298;79;25602;-63
2023/09/08 02:16:19;;;;;;;13.95;8.05;;;;;;;16.35;77.37;101262.66;1795457;79;28299;-63
2023/09/08 02:18:46;;;;;;;12.90;8.08;;;;;;;16.36;77.29;101259.36;1791167;80;25591;-64
2023/09/08 02:21:12;;;;;;;12.13;8.15;;;;;;;16.36;77.27;101264.27;1791249;79;25582;-63
2023/09/08 02:23:38;;;;;;;10.72;7.67;;;;;;;16.37;77.47;101265.86;1791247;79;25368;-62
2023/09/08 02:26:05;;;;;;;12.50;8.33;;;;;;;16.39;77.55;101262.81;1791318;80;25533;-65
2023/09/08 02:28:32;;;;;;;11.48;8.40;;;;;;;16.41;77.70;101269.56;1791264;79;27454;-64
2023/09/08 02:30:58;;;;;;;12.23;7.20;;;;;;;16.42;77.62;101259.44;1791155;80;25594;-64
2023/09/08 02:33:25;;;;;;;8.78;7.87;;;;;;;16.42;77.67;101262.95;1791302;80;25566;-64
2023/09/08 02:35:52;;;;;;;10.68;7.28;;;;;;;16.42;77.55;101257.50;1771644;80;25596;-64
2023/09/08 02:38:20;;;;;;;9.80;6.87;;;;;;;16.43;77.76;101254.22;1791261;80;25605;-64
2023/09/08 02:40:46;;;;;;;10.48;7.50;;;;;;;16.43;77.78;101252.28;1791221;80;27505;-62
2023/09/08 02:43:13;;;;;;;10.05;7.58;;;;;;;16.43;77.78;101248.19;1791141;79;25978;-62
2023/09/08 02:45:40;;;;;;;8.28;6.67;;;;;;;16.45;77.83;101246.50;1791239;79;25531;-62
2023/09/08 02:48:07;;;;;;;12.23;7.50;;;;;;;16.47;78.04;101236.63;1791222;80;25596;-62
2023/09/08 02:50:34;;;;;;;8.83;7.35;;;;;;;16.49;77.99;101239.25;1791300;80;25557;-63
2023/09/08 02:53:00;;;;;;;9.93;7.20;;;;;;;16.49;77.98;101237.89;1791247;80;29683;-63
2023/09/08 02:55:26;;;;;;;9.68;7.33;;;;;;;16.50;77.87;101235.41;1791142;80;25550;-63
2023/09/08 02:57:52;;;;;;;14.63;7.30;;;;;;;16.48;77.63;101236.84;1791286;80;25431;-63
2023/09/08 03:00:20;;;;;;;8.73;7.00;;;;;;;16.48;77.63;101238.20;1791194;80;25638;-63
2023/09/08 03:02:46;;;;;;;9.30;7.15;;;;;;;16.47;77.53;101233.89;1791270;80;25400;-63
2023/09/08 03:05:12;;;;;;;9.28;6.90;;;;;;;16.45;77.61;101236.95;1791250;80;28578;-63
2023/09/08 03:07:39;;;;;;;10.88;7.83;;;;;;;16.44;77.64;101232.03;1791144;79;25198;-63
2023/09/08 03:10:10;;;;;;;7.37;6.55;;;;;;;16.46;77.94;101233.64;1791275;79;25372;-63
2023/09/08 03:12:37;;;;;;;11.60;6.33;;;;;;;16.42;77.55;101233.50;1791284;79;26012;-63
2023/09/08 03:15:07;;;;;;;12.45;7.17;;;;;;;16.41;77.67;101229.15;1791235;80;25530;-63
2023/09/08 03:17:34;;;;;;;7.67;6.58;;;;;;;16.40;77.69;101222.89;1795212;78;27507;-63
2023/09/08 03:20:02;;;;;;;9.25;6.62;;;;;;;16.38;77.77;101223.00;1797050;79;27266;-64
2023/09/08 03:22:29;;;;;;;11.18;6.85;;;;;;;16.34;77.47;101211.11;1781844;79;25614;-64
2023/09/08 03:24:55;;;;;;;9.18;6.67;;;;;;;16.31;77.44;101213.13;1797156;79;25485;-65
2023/09/08 03:27:22;;;;;;;9.53;6.95;;;;;;;16.27;77.24;101210.81;1797331;79;25524;-64
2023/09/08 03:29:48;;;;;;;9.25;7.08;;;;;;;16.20;77.54;101210.73;1797339;79;27477;-64
2023/09/08 03:32:14;;;;;;;9.15;7.33;;;;;;;16.14;77.48;101206.59;1797175;79;25385;-64
2023/09/08 03:34:42;;;;;;;8.98;7.30;;;;;;;16.08;77.85;101209.81;1797234;79;25530;-64
2023/09/08 03:37:09;;;;;;;18.15;8.08;;;;;;;16.01;77.82;101215.77;1797251;79;25526;-63
2023/09/08 03:39:35;;;;;;;10.75;7.50;;;;;;;15.98;77.86;101221.86;1797167;79;25596;-63
2023/09/08 03:42:04;;;;;;;9.78;7.78;;;;;;;15.95;77.93;101220.56;1797137;79;27423;-64
2023/09/08 03:44:30;;;;;;;10.53;6.90;;;;;;;15.92;78.15;101225.86;1797208;79;31991;-63
2023/09/08 03:46:57;;;;;;;8.58;7.20;;;;;;;15.89;78.23;101213.69;1797105;79;25550;-64
2023/09/08 03:49:23;;;;;;;14.45;8.65;;;;;;;15.87;78.20;101221.40;1797124;79;25538;-63
2023/09/08 03:51:49;;;;;;;11.20;7.80;;;;;;;15.85;78.08;101223.63;1797236;79;25513;-63
2023/09/08 03:54:15;;;;;;;10.08;7.28;;;;;;;15.83;78.37;101221.24;1797178;79;27620;-63
2023/09/08 03:56:41;;;;;;;9.15;8.00;;;;;;;15.80;78.63;101220.52;1797259;79;25364;-63
2023/09/08 03:59:08;;;;;;;11.30;7.87;;;;;;;15.75;78.75;101218.46;1797373;79;25574;-63
2023/09/08 04:01:34;;;;;;;11.40;7.65;;;;;;;15.72;78.69;101216.41;1797216;79;27767;-63
2023/09/08 04:04:00;;;;;;;10.65;7.78;;;;;;;15.70;79.02;101216.72;1797283;79;25352;-63
2023/09/08 04:06:28;;;;;;;11.30;7.22;;;;;;;15.68;79.27;101218.41;1797279;79;27373;-63
2023/09/08 04:08:54;;;;;;;12.95;7.40;;;;;;;15.65;79.24;101219.03;1797213;79;25641;-63
2023/09/08 04:11:22;;;;;;;9.95;7.37;;;;;;;15.62;79.60;101211.49;1797270;79;25386;-63
2023/09/08 04:13:48;;;;;;;8.15;7.15;;;;;;;15.60;79.40;101212.38;1797252;79;25514;-63
2023/09/08 04:16:15;;;;;;;10.98;7.80;;;;;;;15.60;79.37;101214.31;1797269;79;25456;-63
2023/09/08 04:18:42;;;;;;;8.73;7.60;;;;;;;15.58;79.76;101214.62;1797244;79;27434;-64
2023/09/08 04:21:10;;;;;;;9.90;7.78;;;;;;;15.56;79.95;101213.33;1797186;79;25446;-63
2023/09/08 04:23:36;;;;;;;9.05;7.35;;;;;;;15.54;79.96;101216.95;1797137;79;25563;-64
2023/09/08 04:26:04;;;;;;;11.38;7.47;;;;;;;15.54;80.16;101216.37;1797210;79;25484;-63
2023/09/08 04:28:31;;;;;;;10.82;7.45;;;;;;;15.55;80.25;101209.02;1797425;79;25554;-65
2023/09/08 04:30:59;;;;;;;11.63;8.43;;;;;;;15.56;80.28;101207.34;1797279;79;28049;-65
2023/09/08 04:33:29;;;;;;;11.18;8.18;;;;;;;15.56;80.53;101210.06;1797142;79;25599;-65
2023/09/08 04:35:55;;;;;;;11.08;7.80;;;;;;;15.57;80.69;101211.65;1797259;79;25582;-65
2023/09/08 04:38:23;;;;;;;8.35;7.22;;;;;;;15.58;80.68;101209.17;1781694;79;25465;-66
2023/09/08 04:40:49;;;;;;;12.25;8.38;;;;;;;15.59;80.68;101205.31;1797273;79;25471;-61
2023/09/08 04:43:16;;;;;;;13.00;8.30;;;;;;;15.61;80.70;101209.08;1797265;79;28052;-61
2023/09/08 04:45:42;;;;;;;9.90;7.87;;;;;;;15.64;81.08;101205.15;1797243;79;25614;-61
2023/09/08 04:48:10;;;;;;;13.48;8.23;;;;;;;15.69;80.98;101206.92;1797198;79;25533;-61
2023/09/08 04:50:37;;;;;;;8.48;7.58;;;;;;;15.72;81.04;101205.49;1797295;79;25569;-61
2023/09/08 04:53:04;;;;;;;13.90;7.83;;;;;;;15.76;81.03;101204.53;1797326;79;25456;-60
2023/09/08 04:55:32;;;;;;;14.13;7.80;;;;;;;15.78;81.04;101202.31;1797170;79;27484;-60
2023/09/08 04:57:58;;;;;;;10.50;7.83;;;;;;;15.81;81.24;101203.58;1797201;79;25385;-60
2023/09/08 05:00:25;;;;;;;14.40;9.00;;;;;;;15.84;81.23;101204.30;1797225;79;25443;-62
2023/09/08 05:02:51;;;;;;;11.80;7.83;;;;;;;15.88;81.55;101205.25;1797214;79;25588;-60
2023/09/08 05:05:17;;;;;;;8.78;7.92;;;;;;;15.90;81.33;101205.72;1797259;79;25390;-60
2023/09/08 05:07:45;;;;;;;14.05;9.95;;;;;;;15.94;81.30;101207.27;1797210;79;27459;-60
2023/09/08 05:10:11;;;;;;;11.33;8.40;;;;;;;15.96;81.44;101203.08;1797104;79;25759;-61
2023/09/08 05:17:49;;;;;;;9.88;7.72;;;;;;;16.08;81.61;101202.99;1726425;80;27297;-60
2023/09/08 05:20:16;;;;;;;13.85;9.48;;;;;;;16.11;81.63;101205.88;1724810;83;27564;-62
2023/09/08 05:22:42;;;;;;;11.93;8.28;;;;;;;16.15;81.79;101199.99;1724576;83;25576;-61
2023/09/08 05:25:09;;;;;;;15.45;8.93;;;;;;;16.20;81.84;101202.55;1724609;83;25582;-60
2023/09/08 05:30:18;;;;;;;9.00;8.00;;;;;;;16.39;82.01;101203.53;1905584;74;25268;-59
2023/09/08 05:32:44;;;;;;;15.83;9.25;;;;;;;16.40;82.12;101202.99;1860100;77;25584;-60
2023/09/08 05:35:10;;;;;;;15.05;8.90;;;;;;;16.48;82.07;101203.53;1860099;77;28135;-60
2023/09/08 05:37:37;;;;;;;12.00;9.03;;;;;;;16.57;82.13;101203.50;1859747;77;25889;-60
2023/09/08 05:40:06;;;;;;;11.30;8.68;;;;;;;16.64;81.86;101200.26;1859867;77;25878;-60
2023/09/08 05:42:33;;;;;;;12.63;9.05;;;;;;;16.73;81.88;101194.97;1859241;77;25638;-58
2023/09/08 05:44:59;;;;;;;11.63;8.68;;;;;;;16.84;81.70;101196.81;1858903;77;25623;-58
2023/09/08 05:47:25;;;;;;;11.43;8.43;;;;;;;16.93;81.59;101196.77;1858848;76;28229;-59
2023/09/08 05:49:51;;;;;;;15.08;8.13;;;;;;;17.02;81.66;101201.61;1858906;76;25729;-60
2023/09/08 05:52:19;;;;;;;12.90;9.10;;;;;;;17.13;81.52;101197.37;1859935;76;25415;-59
2023/09/08 05:54:45;;;;;;;13.03;9.28;;;;;;;17.25;81.60;101202.12;1859864;77;25484;-59
2023/09/08 05:57:12;;;;;;;9.68;7.70;;;;;;;17.38;81.30;101203.55;1859869;77;25506;-60
2023/09/08 05:59:39;;;;;;;10.80;8.20;;;;;;;17.49;81.50;101209.66;1859913;77;28088;-60
2023/09/08 06:02:06;;;;;;;12.00;8.33;;;;;;;17.62;81.33;101204.25;1859789;77;25857;-60
2023/09/08 06:04:32;;;;;;;12.13;8.33;;;;;;;17.76;81.31;101207.52;1859861;76;25626;-59
2023/09/08 06:07:00;;;;;;;13.40;9.08;;;;;;;17.90;81.10;101199.84;1859815;77;25450;-59
2023/09/08 06:09:26;;;;;;;12.93;8.90;;;;;;;18.06;80.96;101203.31;1859873;77;25516;-59
2023/09/08 06:11:52;;;;;;;13.10;8.70;;;;;;;18.20;80.35;101198.90;1859866;77;27986;-59
2023/09/08 06:14:19;;;;;;;10.28;8.78;;;;;;;18.36;80.37;101202.59;1859786;77;25732;-60
2023/09/08 06:16:46;;;;;;;11.12;8.98;;;;;;;18.52;80.08;101197.81;1859883;76;25434;-59
2023/09/08 06:19:13;;;;;;;16.95;8.85;;;;;;;18.69;79.35;101198.17;1859881;77;25801;-59
2023/09/08 06:21:39;;;;;;;10.90;8.53;;;;;;;18.85;79.10;101199.13;1859926;76;25517;-60
2023/09/08 06:24:08;;;;;;;11.57;8.58;;;;;;;19.03;79.04;101203.23;1859899;76;27767;-60
2023/09/08 06:26:35;;;;;;;12.65;8.55;;;;;;;19.21;78.85;101193.37;1859946;77;25511;-58
2023/09/08 06:29:02;;;;;;;15.72;9.05;;;;;;;19.38;77.96;101195.84;1859780;76;25439;-58
2023/09/08 06:31:28;;;;;;;12.05;8.40;;;;;;;19.57;77.69;101194.42;1859867;76;25814;-53
2023/09/08 06:33:55;;;;;;;12.40;8.73;;;;;;;19.76;77.53;101198.70;1860010;77;25439;-57
2023/09/08 06:36:21;;;;;;;13.62;10.03;;;;;;;20.00;77.56;101193.46;1859894;77;27490;-56
2023/09/08 06:38:47;;;;;;;14.45;9.23;;;;;;;20.19;77.23;101190.82;1859830;77;25759;-57
2023/09/08 06:41:15;;;;;;;10.85;8.10;;;;;;;20.40;76.41;101197.46;1859453;76;25379;-54
2023/09/08 06:43:42;;;;;;;12.82;8.95;;;;;;;20.63;75.73;101198.23;1859220;76;25747;-57
2023/09/08 06:46:10;;;;;;;11.00;8.25;;;;;;;20.84;75.83;101196.56;1859300;76;25541;-56
2023/09/08 06:48:36;;;;;;;11.10;7.80;;;;;;;21.13;74.73;101195.28;1859213;76;28130;-57
2023/09/08 06:51:03;;;;;;;13.98;8.03;;;;;;;21.34;73.90;101199.06;1859178;77;25431;-55
2023/09/08 06:53:30;;;;;;;15.90;8.25;;;;;;;21.47;72.30;101206.66;1859283;76;25603;-56
2023/09/08 06:55:59;;;;;;;11.25;7.05;;;;;;;21.60;71.99;101199.03;1859252;76;25616;-54
2023/09/08 06:58:25;;;;;;;8.90;8.00;;;;;;;21.80;71.54;101200.62;1859416;76;25512;-55
2023/09/08 07:00:54;;;;;;;11.15;7.58;;;;;;;22.03;70.79;101207.33;1859403;76;27585;-54
2023/09/08 07:03:24;;;;;;;8.93;7.25;;;;;;;22.18;69.95;101202.30;1859445;76;26263;-57
2023/09/08 07:05:51;;;;;;;12.10;7.20;;;;;;;22.26;68.65;101194.38;1859280;77;25556;-55
2023/09/08 07:08:17;;;;;;;12.80;7.03;;;;;;;22.44;68.95;101194.72;1859182;76;25177;-56
2023/09/08 07:10:46;;;;;;;10.35;7.05;;;;;;;22.66;68.08;101192.30;1859392;76;25367;-56
2023/09/08 07:13:12;;;;;;;9.28;6.85;;;;;;;22.79;67.43;101186.80;1866278;76;27360;-56
2023/09/08 07:15:38;;;;;;;11.40;7.50;;;;;;;23.00;67.29;101180.00;1859190;77;25375;-56
2023/09/08 07:18:06;;;;;;;9.90;7.60;;;;;;;23.20;66.82;101184.84;1859262;77;25351;-54
2023/09/08 07:20:32;;;;;;;9.83;6.85;;;;;;;23.39;66.21;101186.06;1859195;77;25426;-53
2023/09/08 07:22:58;;;;;;;10.00;7.35;;;;;;;23.64;65.99;101180.06;1859369;77;25593;-53
2023/09/08 07:25:25;;;;;;;10.03;6.72;;;;;;;23.99;64.85;101188.54;1859229;77;28140;-55
2023/09/08 07:27:53;;;;;;;10.08;7.40;;;;;;;24.23;64.71;101183.07;1859092;77;27419;-56
2023/09/08 07:30:21;;;;;;;10.43;7.50;;;;;;;24.45;63.34;101186.81;1866112;76;25367;-53
2023/09/08 07:32:47;;;;;;;11.70;7.15;;;;;;;24.68;63.41;101187.20;1859196;77;25497;-52
2023/09/08 07:35:18;;;;;;;9.70;7.28;;;;;;;24.85;62.29;101185.14;1859234;76;25623;-55
2023/09/08 07:37:45;;;;;;;9.23;6.78;;;;;;;24.98;61.88;101180.88;1859292;77;27559;-55
2023/09/08 07:40:12;;;;;;;11.05;7.05;;;;;;;25.32;61.27;101190.38;1859111;77;25423;-54
2023/09/08 07:42:38;;;;;;;9.83;6.62;;;;;;;25.52;60.46;101189.48;1859213;77;25429;-56
2023/09/08 07:45:09;;;;;;;35.60;24.43;;;;;;;25.73;59.93;101185.97;1859233;77;25733;-54
2023/09/08 07:47:38;;;;;;;18.48;16.42;;;;;;;25.76;58.56;101187.18;1859326;76;25540;-54
2023/09/08 07:50:24;;;;;;;11.80;8.65;;;;;;;25.72;57.70;101190.52;1859481;76;27605;-57
2023/09/08 07:52:53;;;;;;;8.65;6.33;;;;;;;25.81;57.80;101192.34;1859167;77;25442;-56
2023/09/08 07:55:26;;;;;;;13.15;7.00;;;;;;;26.04;57.22;101193.39;1859348;76;25530;-57
2023/09/08 07:57:52;;;;;;;9.38;6.78;;;;;;;26.14;56.65;101179.95;1858887;76;25499;-56
2023/09/08 08:00:19;;;;;;;10.18;7.47;;;;;;;26.41;56.99;101179.75;1859278;76;25577;-55
2023/09/08 08:02:54;;;;;;;9.05;6.58;;;;;;;26.73;56.64;101174.81;1859239;77;27433;-56
2023/09/08 08:05:24;;;;;;;7.67;6.55;;;;;;;27.26;56.30;101175.85;1859272;77;25367;-56
2023/09/08 08:07:51;;;;;;;9.63;6.70;;;;;;;27.71;55.42;101174.66;1859658;76;25511;-55
2023/09/08 08:10:19;;;;;;;12.00;6.60;;;;;;;28.21;54.71;101179.11;1859408;77;25537;-55
2023/09/08 08:12:46;;;;;;;7.90;6.62;;;;;;;28.67;53.29;101177.16;1859574;76;25635;-55
2023/09/08 08:15:12;;;;;;;8.50;5.97;;;;;;;29.02;52.18;101173.20;1859576;76;27467;-56
2023/09/08 08:17:40;;;;;;;9.13;5.35;;;;;;;29.41;51.54;101177.54;1859487;77;25508;-55
2023/09/08 08:20:10;;;;;;;7.78;5.12;;;;;;;29.71;50.92;101176.54;1859322;76;25592;-55
2023/09/08 08:22:38;;;;;;;9.98;6.58;;;;;;;29.98;50.25;101175.98;1859184;76;25865;-54
2023/09/08 08:25:08;;;;;;;11.28;6.08;;;;;;;30.33;49.07;101180.78;1859250;76;25564;-56
2023/09/08 08:27:34;;;;;;;8.23;6.25;;;;;;;30.63;48.22;101184.70;1859285;76;27450;-56
2023/09/08 08:30:01;;;;;;;9.85;6.17;;;;;;;30.96;47.29;101183.50;1862073;76;25507;-56
2023/09/08 08:32:29;;;;;;;9.50;6.47;;;;;;;31.06;46.75;101184.52;1865514;76;25556;-56
2023/09/08 08:34:56;;;;;;;5.70;4.10;;;;;;;31.25;46.00;101180.14;1865504;76;25163;-56
2023/09/08 08:37:23;;;;;;;10.28;5.58;;;;;;;31.59;45.86;101181.22;1865584;76;25548;-58
2023/09/08 08:39:50;;;;;;;8.40;6.10;;;;;;;31.86;44.99;101180.81;1864915;76;27770;-57
2023/09/08 08:42:17;;;;;;;9.05;5.67;;;;;;;32.07;44.20;101179.56;1865450;76;25561;-57
2023/09/08 08:44:45;;;;;;;10.28;5.95;;;;;;;32.27;43.62;101173.89;1865513;76;25587;-56
2023/09/08 08:47:15;;;;;;;7.10;5.53;;;;;;;32.34;43.11;101175.09;1877418;76;25645;-57
2023/09/08 08:49:47;;;;;;;8.10;5.42;;;;;;;32.43;42.67;101178.05;1865512;76;25442;-57
2023/09/08 08:52:15;;;;;;;12.43;5.60;;;;;;;32.68;42.48;101172.44;1865518;76;27426;-58
2023/09/08 08:54:42;;;;;;;8.57;5.30;;;;;;;32.96;42.24;101170.84;1865703;76;25727;-58
2023/09/08 08:57:12;;;;;;;6.47;5.37;;;;;;;33.22;41.73;101168.94;1865519;76;25463;-57
2023/09/08 08:59:41;;;;;;;9.50;5.87;;;;;;;33.49;40.65;101167.12;1865488;76;25583;-57
2023/09/08 09:02:09;;;;;;;;;;;;;;;33.44;40.29;101164.88;1868316;76;25427;-57
2023/09/08 09:04:38;;;;;;;8.70;5.10;;;;;;;33.62;40.07;101160.73;1865637;76;28249;-57
2023/09/08 09:07:07;;;;;;;10.78;6.15;;;;;;;33.99;40.26;101156.36;1865403;76;25817;-56
2023/09/08 09:09:34;;;;;;;7.92;5.83;;;;;;;34.33;40.08;101151.27;1865447;76;25347;-56
2023/09/08 09:12:02;;;;;;;10.13;5.78;;;;;;;34.55;38.63;101157.70;1865722;76;25533;-57
2023/09/08 09:14:34;;;;;;;6.62;5.15;;;;;;;34.56;37.75;101150.05;1865684;76;25450;-57
2023/09/08 09:17:04;;;;;;;9.00;5.50;;;;;;;34.57;37.68;101144.61;1865509;76;27444;-57
2023/09/08 09:19:31;;;;;;;9.50;5.47;;;;;;;34.75;37.37;101149.00;1865325;76;25364;-57
2023/09/08 09:21:59;;;;;;;6.20;5.33;;;;;;;34.95;36.94;101146.46;1865634;76;25387;-57
2023/09/08 09:24:43;;;;;;;7.28;5.62;;;;;;;35.22;36.76;101138.84;1865597;76;25375;-57
2023/09/08 09:27:11;;;;;;;6.58;5.47;;;;;;;35.33;36.00;101146.25;1865576;76;25599;-57
2023/09/08 09:29:54;;;;;;;6.25;5.25;;;;;;;35.28;35.85;101139.02;1864336;76;28189;-57
2023/09/08 09:32:26;;;;;;;6.20;5.17;;;;;;;35.42;35.95;101137.06;1782220;79;25502;-57
2023/09/08 09:34:54;;;;;;;9.43;6.08;;;;;;;35.80;35.42;101138.78;1782608;79;25657;-58
2023/09/08 09:37:23;;;;;;;7.97;5.13;;;;;;;35.93;34.73;101137.27;1809077;79;25587;-56
2023/09/08 09:39:51;;;;;;;;;;;;;;;35.98;35.10;101131.02;1811611;79;25579;-56
2023/09/08 09:42:19;;;;;;;8.45;5.47;;;;;;;36.33;34.45;101127.16;1808672;79;27489;-55
2023/09/08 09:44:49;;;;;;;7.03;5.45;;;;;;;36.52;34.10;101128.71;1808933;79;25721;-56
2023/09/08 09:47:16;;;;;;;9.05;4.95;;;;;;;36.73;33.67;101127.02;1808886;79;25499;-56
2023/09/08 09:49:46;;;;;;;5.63;4.23;;;;;;;36.63;32.82;101121.98;1809063;79;25729;-57
2023/09/08 09:52:16;;;;;;;6.47;4.78;;;;;;;36.33;31.71;101129.98;1808787;79;25582;-57
2023/09/08 09:54:44;;;;;;;5.03;3.80;;;;;;;35.97;32.19;101125.22;1808382;79;28062;-55
2023/09/08 09:57:15;;;;;;;8.00;4.20;;;;;;;35.77;32.55;101114.38;1809273;79;25445;-57
2023/09/08 09:59:42;;;;;;;5.80;4.70;;;;;;;35.86;32.96;101113.61;1809118;79;25453;-54
2023/09/08 10:02:13;;;;;;;7.00;5.73;;;;;;;36.13;32.71;101111.47;1809743;79;25844;-56
2023/09/08 10:04:43;;;;;;;6.33;4.37;;;;;;;36.22;31.97;101110.74;1809329;79;25665;-56
2023/09/08 10:07:10;;;;;;;7.95;4.50;;;;;;;35.93;31.32;101107.71;1808953;79;27463;-58
2023/09/08 10:09:37;;;;;;;8.03;5.33;;;;;;;35.96;30.81;101112.41;1839427;77;25645;-57
2023/09/08 10:12:06;;;;;;;7.00;4.50;;;;;;;35.64;30.53;101115.89;1859306;76;25157;-56
2023/09/08 10:14:37;;;;;;;3.83;3.52;;;;;;;35.40;30.83;101112.05;1859261;76;25768;-56
2023/09/08 10:17:17;;;;;;;5.17;3.60;;;;;;;35.44;31.44;101107.85;1859583;76;25588;-55
2023/09/08 10:19:51;;;;;;;4.58;4.08;;;;;;;35.16;30.47;101109.12;1859536;76;27838;-54
2023/09/08 10:22:19;;;;;;;5.30;3.85;;;;;;;34.83;30.69;101102.38;1858236;76;25773;-56
2023/09/08 10:24:49;;;;;;;4.87;4.03;;;;;;;34.81;31.24;101109.08;1859650;76;25594;-57
2023/09/08 10:27:22;;;;;;;7.72;3.75;;;;;;;34.78;30.69;101101.70;1859609;77;25608;-55
2023/09/08 10:29:49;;;;;;;4.10;3.80;;;;;;;34.58;30.91;101105.44;1860607;76;25566;-56
2023/09/08 10:32:18;;;;;;;4.85;3.92;;;;;;;34.63;31.17;101104.84;1865827;76;26979;-54
2023/09/08 10:34:46;;;;;;;5.53;4.85;;;;;;;34.59;30.55;101107.02;1865740;76;25536;-53
2023/09/08 10:37:25;;;;;;;;;;;;;;;34.22;30.47;101096.88;1868513;76;25598;-56
2023/09/08 10:39:52;;;;;;;4.58;4.10;;;;;;;33.82;30.63;101096.80;1865775;76;25550;-56
2023/09/08 10:42:27;;;;;;;5.65;4.08;;;;;;;33.52;31.83;101091.75;1865809;76;25172;-56
2023/09/08 10:45:05;;;;;;;5.28;4.55;;;;;;;33.61;32.60;101095.45;1865760;76;28066;-55
2023/09/08 10:47:57;;;;;;;7.37;4.22;;;;;;;34.13;32.59;101093.34;1865811;76;25576;-59
2023/09/08 10:50:35;;;;;;;5.22;4.40;;;;;;;34.56;31.38;101096.69;1818027;78;25550;-61
2023/09/08 10:53:15;;;;;;;4.65;3.98;;;;;;;34.75;30.29;101087.80;1817163;78;25489;-59
2023/09/08 10:55:50;;;;;;;6.47;4.60;;;;;;;34.82;29.94;101085.34;1818123;78;25486;-59
2023/09/08 10:58:42;;;;;;;5.90;4.22;;;;;;;34.92;30.88;101084.95;1817973;78;27527;-59
2023/09/08 11:01:14;;;;;;;7.90;4.47;;;;;;;34.73;30.62;101074.83;1817649;78;25925;-59
2023/09/08 11:03:47;;;;;;;5.45;4.65;;;;;;;34.65;30.45;101076.30;1817891;78;25589;-61
2023/09/08 11:06:18;;;;;;;5.15;4.67;;;;;;;34.53;30.98;101071.72;1817803;78;25473;-59
2023/09/08 11:08:47;;;;;;;5.80;5.20;;;;;;;34.77;30.99;101070.66;1817910;78;25587;-59
2023/09/08 11:22:50;;;;;;;6.37;5.05;;;;;;;36.07;28.52;101054.23;1868416;76;25417;-57
2023/09/08 11:25:20;;;;;;;5.45;4.40;;;;;;;35.65;29.23;101053.38;1757111;81;25633;-58
2023/09/08 11:27:50;;;;;;;9.30;5.28;;;;;;;35.88;29.86;101052.05;1777041;80;28191;-58
2023/09/08 11:30:18;;;;;;;7.25;5.53;;;;;;;36.31;30.15;101053.64;1777016;80;25788;-57
2023/09/08 11:32:45;;;;;;;5.67;5.00;;;;;;;36.80;29.76;101050.59;1757087;81;32058;-58
2023/09/08 11:35:15;;;;;;;7.40;4.95;;;;;;;37.29;29.25;101048.72;1771088;81;25947;-58
2023/09/08 11:37:43;;;;;;;6.45;5.22;;;;;;;37.81;29.03;101044.33;1757047;81;25437;-58
2023/09/08 11:40:14;;;;;;;12.80;5.85;;;;;;;38.17;28.20;101050.20;1771221;81;27469;-60
2023/09/08 11:42:45;;;;;;;7.70;5.87;;;;;;;38.01;27.05;101050.00;1756907;81;25441;-60
2023/09/08 11:45:14;;;;;;;8.95;6.05;;;;;;;36.97;26.69;101049.59;1777182;80;25368;-59